Terminal Aerodrome Forecast
Issued by NWS Caribou, ME

Home | Current Version | Previous Version | Text Only | Print | Product List | Glossary On
Versions: 1 2 3 4 5 6 7 8 9 10 11 12 13 14 15 16 17 18 19 20 21 22
629
FTUS41 KCAR 101135
TAFBGR
TAF
KBGR 101135Z 1012/1112 22004KT P6SM SCT035
     FM101800 23005KT P6SM BKN030
     FM110000 VRB03KT P6SM VCSH OVC020
     FM110300 VRB03KT 3SM -SHSN OVC014
     FM110800 VRB03KT 6SM -SHSN BKN022=

USA.gov is the U.S. government's official web portal to all federal, state and local government web resources and services.